sensor_id;sensor_type;location;lat;lon;timestamp;P1;durP1;ratioP1;P2;durP2;ratioP2
39612;SDS011;25303;48.896;13.342;2022-08-21T00:01:19;4.85;;;3.45;;
39612;SDS011;25303;48.896;13.342;2022-08-21T00:04:06;7.13;;;4.72;;
39612;SDS011;25303;48.896;13.342;2022-08-21T00:06:50;5.38;;;3.88;;
39612;SDS011;25303;48.896;13.342;2022-08-21T00:09:35;4.18;;;3.58;;
39612;SDS011;25303;48.896;13.342;2022-08-21T00:15:02;4.47;;;3.53;;
39612;SDS011;25303;48.896;13.342;2022-08-21T00:17:49;5.30;;;4.18;;
39612;SDS011;25303;48.896;13.342;2022-08-21T00:20:32;3.97;;;3.20;;
39612;SDS011;25303;48.896;13.342;2022-08-21T00:23:16;5.72;;;4.35;;
39612;SDS011;25303;48.896;13.342;2022-08-21T00:26:00;5.53;;;4.32;;
39612;SDS011;25303;48.896;13.342;2022-08-21T00:28:43;4.43;;;3.83;;
39612;SDS011;25303;48.896;13.342;2022-08-21T00:31:27;4.57;;;3.35;;
39612;SDS011;25303;48.896;13.342;2022-08-21T00:34:10;5.07;;;3.97;;
39612;SDS011;25303;48.896;13.342;2022-08-21T00:36:55;5.50;;;4.35;;
39612;SDS011;25303;48.896;13.342;2022-08-21T00:39:38;3.40;;;2.90;;
39612;SDS011;25303;48.896;13.342;2022-08-21T00:42:23;3.85;;;3.10;;
39612;SDS011;25303;48.896;13.342;2022-08-21T00:45:06;5.57;;;4.30;;
39612;SDS011;25303;48.896;13.342;2022-08-21T00:47:50;6.05;;;4.97;;
39612;SDS011;25303;48.896;13.342;2022-08-21T00:50:35;4.80;;;4.15;;
39612;SDS011;25303;48.896;13.342;2022-08-21T00:53:22;4.18;;;3.65;;
39612;SDS011;25303;48.896;13.342;2022-08-21T00:56:07;2.88;;;2.50;;
39612;SDS011;25303;48.896;13.342;2022-08-21T00:58:54;4.63;;;3.78;;
39612;SDS011;25303;48.896;13.342;2022-08-21T01:01:40;3.30;;;2.92;;
39612;SDS011;25303;48.896;13.342;2022-08-21T01:04:23;3.53;;;2.92;;
39612;SDS011;25303;48.896;13.342;2022-08-21T01:07:06;4.15;;;3.33;;
39612;SDS011;25303;48.896;13.342;2022-08-21T01:09:49;6.88;;;5.15;;
39612;SDS011;25303;48.896;13.342;2022-08-21T01:12:33;4.65;;;3.65;;
39612;SDS011;25303;48.896;13.342;2022-08-21T01:15:18;5.97;;;4.60;;
39612;SDS011;25303;48.896;13.342;2022-08-21T01:18:04;5.90;;;4.57;;
39612;SDS011;25303;48.896;13.342;2022-08-21T01:20:59;4.25;;;3.53;;
39612;SDS011;25303;48.896;13.342;2022-08-21T01:23:46;4.53;;;3.65;;
39612;SDS011;25303;48.896;13.342;2022-08-21T01:26:32;4.70;;;3.72;;
39612;SDS011;25303;48.896;13.342;2022-08-21T01:29:20;4.93;;;3.65;;
39612;SDS011;25303;48.896;13.342;2022-08-21T01:32:11;4.07;;;3.45;;
39612;SDS011;25303;48.896;13.342;2022-08-21T01:34:57;3.35;;;2.88;;
39612;SDS011;25303;48.896;13.342;2022-08-21T01:37:42;5.22;;;3.58;;
39612;SDS011;25303;48.896;13.342;2022-08-21T01:40:25;5.82;;;4.50;;
39612;SDS011;25303;48.896;13.342;2022-08-21T01:43:08;5.38;;;3.95;;
39612;SDS011;25303;48.896;13.342;2022-08-21T01:45:51;6.80;;;4.93;;
39612;SDS011;25303;48.896;13.342;2022-08-21T01:48:35;6.50;;;4.85;;
39612;SDS011;25303;48.896;13.342;2022-08-21T01:51:19;6.43;;;5.03;;
39612;SDS011;25303;48.896;13.342;2022-08-21T01:54:03;6.45;;;4.70;;
39612;SDS011;25303;48.896;13.342;2022-08-21T01:56:48;8.07;;;5.65;;
39612;SDS011;25303;48.896;13.342;2022-08-21T01:59:34;4.75;;;3.53;;
39612;SDS011;25303;48.896;13.342;2022-08-21T02:02:17;4.72;;;3.80;;
39612;SDS011;25303;48.896;13.342;2022-08-21T02:05:00;5.78;;;4.70;;
39612;SDS011;25303;48.896;13.342;2022-08-21T02:07:45;5.50;;;4.75;;
39612;SDS011;25303;48.896;13.342;2022-08-21T02:10:32;7.13;;;4.95;;
39612;SDS011;25303;48.896;13.342;2022-08-21T02:13:16;9.55;;;6.43;;
39612;SDS011;25303;48.896;13.342;2022-08-21T02:15:59;10.57;;;7.93;;
39612;SDS011;25303;48.896;13.342;2022-08-21T02:18:42;10.20;;;7.68;;
39612;SDS011;25303;48.896;13.342;2022-08-21T02:21:25;9.18;;;7.25;;
39612;SDS011;25303;48.896;13.342;2022-08-21T02:24:09;12.55;;;9.38;;
39612;SDS011;25303;48.896;13.342;2022-08-21T02:26:54;12.00;;;8.70;;
39612;SDS011;25303;48.896;13.342;2022-08-21T02:29:37;12.27;;;9.40;;
39612;SDS011;25303;48.896;13.342;2022-08-21T02:32:22;12.38;;;9.05;;
39612;SDS011;25303;48.896;13.342;2022-08-21T02:35:06;12.90;;;9.57;;
39612;SDS011;25303;48.896;13.342;2022-08-21T02:37:51;12.93;;;9.63;;
39612;SDS011;25303;48.896;13.342;2022-08-21T02:40:37;14.82;;;10.48;;
39612;SDS011;25303;48.896;13.342;2022-08-21T02:43:29;13.20;;;8.65;;
39612;SDS011;25303;48.896;13.342;2022-08-21T02:46:13;18.33;;;12.88;;
39612;SDS011;25303;48.896;13.342;2022-08-21T02:48:58;18.90;;;12.38;;
39612;SDS011;25303;48.896;13.342;2022-08-21T02:51:41;19.45;;;11.73;;
39612;SDS011;25303;48.896;13.342;2022-08-21T02:54:24;13.93;;;9.93;;
39612;SDS011;25303;48.896;13.342;2022-08-21T02:57:07;16.05;;;11.15;;
39612;SDS011;25303;48.896;13.342;2022-08-21T02:59:52;15.15;;;10.20;;
39612;SDS011;25303;48.896;13.342;2022-08-21T03:02:35;12.38;;;8.68;;
39612;SDS011;25303;48.896;13.342;2022-08-21T03:05:18;10.93;;;7.88;;
39612;SDS011;25303;48.896;13.342;2022-08-21T03:08:02;12.02;;;7.93;;
39612;SDS011;25303;48.896;13.342;2022-08-21T03:10:49;11.05;;;7.68;;
39612;SDS011;25303;48.896;13.342;2022-08-21T03:13:33;14.32;;;9.82;;
39612;SDS011;25303;48.896;13.342;2022-08-21T03:16:17;12.27;;;8.20;;
39612;SDS011;25303;48.896;13.342;2022-08-21T03:19:02;14.85;;;10.15;;
39612;SDS011;25303;48.896;13.342;2022-08-21T03:21:45;17.30;;;11.32;;
39612;SDS011;25303;48.896;13.342;2022-08-21T03:24:28;13.80;;;9.80;;
39612;SDS011;25303;48.896;13.342;2022-08-21T03:27:13;12.77;;;8.82;;
39612;SDS011;25303;48.896;13.342;2022-08-21T03:29:57;10.43;;;7.38;;
39612;SDS011;25303;48.896;13.342;2022-08-21T03:32:41;13.45;;;9.07;;
39612;SDS011;25303;48.896;13.342;2022-08-21T03:35:25;11.27;;;8.07;;
39612;SDS011;25303;48.896;13.342;2022-08-21T03:38:09;14.77;;;9.82;;
39612;SDS011;25303;48.896;13.342;2022-08-21T03:40:54;8.85;;;6.80;;
39612;SDS011;25303;48.896;13.342;2022-08-21T03:43:37;11.18;;;7.68;;
39612;SDS011;25303;48.896;13.342;2022-08-21T03:46:20;10.07;;;7.50;;
39612;SDS011;25303;48.896;13.342;2022-08-21T03:49:04;13.05;;;7.97;;
39612;SDS011;25303;48.896;13.342;2022-08-21T03:51:47;9.90;;;7.38;;
39612;SDS011;25303;48.896;13.342;2022-08-21T03:54:40;11.55;;;7.68;;
39612;SDS011;25303;48.896;13.342;2022-08-21T03:57:23;8.43;;;6.05;;
39612;SDS011;25303;48.896;13.342;2022-08-21T04:00:06;12.95;;;9.05;;
39612;SDS011;25303;48.896;13.342;2022-08-21T04:02:51;8.63;;;6.43;;
39612;SDS011;25303;48.896;13.342;2022-08-21T04:05:36;10.20;;;6.93;;
39612;SDS011;25303;48.896;13.342;2022-08-21T04:08:19;9.38;;;6.78;;
39612;SDS011;25303;48.896;13.342;2022-08-21T04:11:02;10.93;;;7.20;;
39612;SDS011;25303;48.896;13.342;2022-08-21T04:13:46;11.35;;;8.23;;
39612;SDS011;25303;48.896;13.342;2022-08-21T04:16:29;9.90;;;7.13;;
39612;SDS011;25303;48.896;13.342;2022-08-21T04:19:13;10.57;;;7.20;;
39612;SDS011;25303;48.896;13.342;2022-08-21T04:21:57;11.68;;;7.68;;
39612;SDS011;25303;48.896;13.342;2022-08-21T04:24:40;8.77;;;6.15;;
39612;SDS011;25303;48.896;13.342;2022-08-21T04:27:23;12.40;;;8.27;;
39612;SDS011;25303;48.896;13.342;2022-08-21T04:30:07;9.80;;;6.53;;
39612;SDS011;25303;48.896;13.342;2022-08-21T04:32:52;8.50;;;6.10;;
39612;SDS011;25303;48.896;13.342;2022-08-21T04:35:35;9.07;;;6.28;;
39612;SDS011;25303;48.896;13.342;2022-08-21T04:38:19;8.60;;;6.03;;
39612;SDS011;25303;48.896;13.342;2022-08-21T04:41:03;11.68;;;8.45;;
39612;SDS011;25303;48.896;13.342;2022-08-21T04:43:46;11.75;;;8.45;;
39612;SDS011;25303;48.896;13.342;2022-08-21T04:46:29;9.88;;;6.70;;
39612;SDS011;25303;48.896;13.342;2022-08-21T04:49:13;9.00;;;6.53;;
39612;SDS011;25303;48.896;13.342;2022-08-21T04:51:56;10.48;;;6.72;;
39612;SDS011;25303;48.896;13.342;2022-08-21T04:54:41;9.98;;;7.03;;
39612;SDS011;25303;48.896;13.342;2022-08-21T04:57:26;11.13;;;8.07;;
39612;SDS011;25303;48.896;13.342;2022-08-21T05:00:28;8.65;;;6.03;;
39612;SDS011;25303;48.896;13.342;2022-08-21T05:03:12;10.32;;;6.88;;
39612;SDS011;25303;48.896;13.342;2022-08-21T05:05:57;10.60;;;7.78;;
39612;SDS011;25303;48.896;13.342;2022-08-21T05:08:40;10.40;;;7.32;;
39612;SDS011;25303;48.896;13.342;2022-08-21T05:11:26;7.40;;;5.45;;
39612;SDS011;25303;48.896;13.342;2022-08-21T05:14:10;8.48;;;6.32;;
39612;SDS011;25303;48.896;13.342;2022-08-21T05:16:54;9.03;;;6.47;;
39612;SDS011;25303;48.896;13.342;2022-08-21T05:19:37;9.43;;;6.72;;
39612;SDS011;25303;48.896;13.342;2022-08-21T05:22:20;11.40;;;7.82;;
39612;SDS011;25303;48.896;13.342;2022-08-21T05:25:06;11.80;;;8.27;;
39612;SDS011;25303;48.896;13.342;2022-08-21T05:27:52;8.93;;;6.68;;
39612;SDS011;25303;48.896;13.342;2022-08-21T05:30:38;8.38;;;5.63;;
39612;SDS011;25303;48.896;13.342;2022-08-21T05:33:22;10.38;;;6.95;;
39612;SDS011;25303;48.896;13.342;2022-08-21T05:36:05;10.73;;;7.82;;
39612;SDS011;25303;48.896;13.342;2022-08-21T05:38:49;8.77;;;6.68;;
39612;SDS011;25303;48.896;13.342;2022-08-21T05:41:32;7.07;;;5.32;;
39612;SDS011;25303;48.896;13.342;2022-08-21T05:44:17;10.55;;;7.78;;
39612;SDS011;25303;48.896;13.342;2022-08-21T05:47:03;8.50;;;6.07;;
39612;SDS011;25303;48.896;13.342;2022-08-21T05:49:47;9.60;;;7.03;;
39612;SDS011;25303;48.896;13.342;2022-08-21T05:52:31;8.88;;;6.63;;
39612;SDS011;25303;48.896;13.342;2022-08-21T05:55:14;7.65;;;5.72;;
39612;SDS011;25303;48.896;13.342;2022-08-21T05:57:57;7.68;;;5.93;;
39612;SDS011;25303;48.896;13.342;2022-08-21T06:00:42;8.05;;;6.07;;
39612;SDS011;25303;48.896;13.342;2022-08-21T06:03:28;9.30;;;7.00;;
39612;SDS011;25303;48.896;13.342;2022-08-21T06:06:13;9.48;;;7.05;;
39612;SDS011;25303;48.896;13.342;2022-08-21T06:08:57;10.05;;;6.95;;
39612;SDS011;25303;48.896;13.342;2022-08-21T06:11:40;9.35;;;6.95;;
39612;SDS011;25303;48.896;13.342;2022-08-21T06:14:23;11.50;;;7.57;;
39612;SDS011;25303;48.896;13.342;2022-08-21T06:17:08;9.10;;;6.60;;
39612;SDS011;25303;48.896;13.342;2022-08-21T06:19:53;11.65;;;7.97;;
39612;SDS011;25303;48.896;13.342;2022-08-21T06:22:37;10.73;;;7.90;;
39612;SDS011;25303;48.896;13.342;2022-08-21T06:25:20;10.77;;;7.13;;
39612;SDS011;25303;48.896;13.342;2022-08-21T06:28:04;10.30;;;7.65;;
39612;SDS011;25303;48.896;13.342;2022-08-21T06:30:49;9.20;;;6.95;;
39612;SDS011;25303;48.896;13.342;2022-08-21T06:33:34;13.63;;;9.43;;
39612;SDS011;25303;48.896;13.342;2022-08-21T06:36:17;11.55;;;8.05;;
39612;SDS011;25303;48.896;13.342;2022-08-21T06:39:02;9.20;;;6.18;;
39612;SDS011;25303;48.896;13.342;2022-08-21T06:41:57;11.63;;;8.45;;
39612;SDS011;25303;48.896;13.342;2022-08-21T06:44:42;10.68;;;7.40;;
39612;SDS011;25303;48.896;13.342;2022-08-21T06:47:26;10.57;;;7.60;;
39612;SDS011;25303;48.896;13.342;2022-08-21T06:50:10;10.30;;;7.55;;
39612;SDS011;25303;48.896;13.342;2022-08-21T06:52:57;12.50;;;8.70;;
39612;SDS011;25303;48.896;13.342;2022-08-21T06:55:42;14.63;;;10.65;;
39612;SDS011;25303;48.896;13.342;2022-08-21T06:58:25;13.20;;;9.68;;
39612;SDS011;25303;48.896;13.342;2022-08-21T07:01:08;14.35;;;10.38;;
39612;SDS011;25303;48.896;13.342;2022-08-21T07:03:51;10.93;;;7.90;;
39612;SDS011;25303;48.896;13.342;2022-08-21T07:06:35;11.27;;;8.70;;
39612;SDS011;25303;48.896;13.342;2022-08-21T07:09:19;12.88;;;9.10;;
39612;SDS011;25303;48.896;13.342;2022-08-21T07:12:05;14.63;;;10.15;;
39612;SDS011;25303;48.896;13.342;2022-08-21T07:14:49;10.93;;;8.50;;
39612;SDS011;25303;48.896;13.342;2022-08-21T07:17:32;12.63;;;8.60;;
39612;SDS011;25303;48.896;13.342;2022-08-21T07:20:15;16.30;;;11.68;;
39612;SDS011;25303;48.896;13.342;2022-08-21T07:23:00;12.48;;;9.35;;
39612;SDS011;25303;48.896;13.342;2022-08-21T07:25:46;11.30;;;8.20;;
39612;SDS011;25303;48.896;13.342;2022-08-21T07:28:29;12.23;;;9.07;;
39612;SDS011;25303;48.896;13.342;2022-08-21T07:31:13;15.43;;;11.48;;
39612;SDS011;25303;48.896;13.342;2022-08-21T07:33:58;16.23;;;11.88;;
39612;SDS011;25303;48.896;13.342;2022-08-21T07:36:41;17.73;;;12.82;;
39612;SDS011;25303;48.896;13.342;2022-08-21T07:39:25;20.02;;;13.70;;
39612;SDS011;25303;48.896;13.342;2022-08-21T07:42:08;16.70;;;12.80;;
39612;SDS011;25303;48.896;13.342;2022-08-21T07:44:52;17.95;;;12.70;;
39612;SDS011;25303;48.896;13.342;2022-08-21T07:47:36;13.75;;;10.75;;
39612;SDS011;25303;48.896;13.342;2022-08-21T07:50:23;16.48;;;12.38;;
39612;SDS011;25303;48.896;13.342;2022-08-21T07:53:07;18.50;;;13.38;;
39612;SDS011;25303;48.896;13.342;2022-08-21T07:55:51;17.00;;;13.00;;
39612;SDS011;25303;48.896;13.342;2022-08-21T07:58:34;12.75;;;9.93;;
39612;SDS011;25303;48.896;13.342;2022-08-21T08:01:18;16.33;;;12.38;;
39612;SDS011;25303;48.896;13.342;2022-08-21T08:04:02;16.83;;;11.80;;
39612;SDS011;25303;48.896;13.342;2022-08-21T08:06:45;14.43;;;10.18;;
39612;SDS011;25303;48.896;13.342;2022-08-21T08:09:28;15.68;;;11.80;;
39612;SDS011;25303;48.896;13.342;2022-08-21T08:12:13;13.60;;;11.00;;
39612;SDS011;25303;48.896;13.342;2022-08-21T08:14:56;13.57;;;10.27;;
39612;SDS011;25303;48.896;13.342;2022-08-21T08:17:39;13.40;;;10.15;;
39612;SDS011;25303;48.896;13.342;2022-08-21T08:20:23;14.77;;;10.48;;
39612;SDS011;25303;48.896;13.342;2022-08-21T08:23:09;10.98;;;9.05;;
39612;SDS011;25303;48.896;13.342;2022-08-21T08:25:52;11.85;;;9.65;;
39612;SDS011;25303;48.896;13.342;2022-08-21T08:28:37;15.38;;;11.77;;
39612;SDS011;25303;48.896;13.342;2022-08-21T08:31:20;16.08;;;12.23;;
39612;SDS011;25303;48.896;13.342;2022-08-21T08:34:03;11.27;;;8.85;;
39612;SDS011;25303;48.896;13.342;2022-08-21T08:36:46;11.43;;;9.25;;
39612;SDS011;25303;48.896;13.342;2022-08-21T08:39:31;9.57;;;7.75;;
39612;SDS011;25303;48.896;13.342;2022-08-21T08:42:16;12.95;;;10.88;;
39612;SDS011;25303;48.896;13.342;2022-08-21T08:45:18;12.15;;;10.10;;
39612;SDS011;25303;48.896;13.342;2022-08-21T08:48:06;9.80;;;8.18;;
39612;SDS011;25303;48.896;13.342;2022-08-21T08:50:55;10.02;;;7.97;;
39612;SDS011;25303;48.896;13.342;2022-08-21T08:56:29;9.75;;;7.85;;
39612;SDS011;25303;48.896;13.342;2022-08-21T08:59:19;11.95;;;9.85;;
39612;SDS011;25303;48.896;13.342;2022-08-21T09:02:07;8.57;;;7.35;;
39612;SDS011;25303;48.896;13.342;2022-08-21T09:04:53;11.00;;;8.38;;
39612;SDS011;25303;48.896;13.342;2022-08-21T09:07:39;8.60;;;7.30;;
39612;SDS011;25303;48.896;13.342;2022-08-21T09:10:34;10.15;;;8.35;;
39612;SDS011;25303;48.896;13.342;2022-08-21T09:13:27;9.88;;;7.70;;
39612;SDS011;25303;48.896;13.342;2022-08-21T09:16:25;8.48;;;6.55;;
39612;SDS011;25303;48.896;13.342;2022-08-21T09:19:26;8.50;;;7.00;;
39612;SDS011;25303;48.896;13.342;2022-08-21T09:22:21;9.27;;;7.07;;
39612;SDS011;25303;48.896;13.342;2022-08-21T09:25:12;8.10;;;6.45;;
39612;SDS011;25303;48.896;13.342;2022-08-21T09:28:07;10.35;;;7.50;;
39612;SDS011;25303;48.896;13.342;2022-08-21T09:30:54;7.65;;;6.55;;
39612;SDS011;25303;48.896;13.342;2022-08-21T09:33:39;8.30;;;6.63;;
39612;SDS011;25303;48.896;13.342;2022-08-21T09:36:25;8.82;;;6.10;;
39612;SDS011;25303;48.896;13.342;2022-08-21T09:39:22;9.40;;;7.03;;
39612;SDS011;25303;48.896;13.342;2022-08-21T09:42:08;7.30;;;5.97;;
39612;SDS011;25303;48.896;13.342;2022-08-21T09:45:04;6.07;;;5.35;;
39612;SDS011;25303;48.896;13.342;2022-08-21T09:47:51;7.50;;;5.40;;
39612;SDS011;25303;48.896;13.342;2022-08-21T09:50:34;6.82;;;5.93;;
39612;SDS011;25303;48.896;13.342;2022-08-21T09:53:20;9.07;;;7.45;;
39612;SDS011;25303;48.896;13.342;2022-08-21T09:56:16;8.27;;;5.95;;
39612;SDS011;25303;48.896;13.342;2022-08-21T09:59:20;7.22;;;5.85;;
39612;SDS011;25303;48.896;13.342;2022-08-21T10:05:16;8.27;;;6.15;;
39612;SDS011;25303;48.896;13.342;2022-08-21T10:08:01;6.75;;;5.50;;
39612;SDS011;25303;48.896;13.342;2022-08-21T10:10:49;6.47;;;5.57;;
39612;SDS011;25303;48.896;13.342;2022-08-21T10:13:40;5.13;;;4.63;;
39612;SDS011;25303;48.896;13.342;2022-08-21T10:19:22;5.85;;;4.80;;
39612;SDS011;25303;48.896;13.342;2022-08-21T10:22:17;4.78;;;3.85;;
39612;SDS011;25303;48.896;13.342;2022-08-21T10:25:13;5.47;;;3.88;;
39612;SDS011;25303;48.896;13.342;2022-08-21T10:28:05;7.88;;;7.07;;
39612;SDS011;25303;48.896;13.342;2022-08-21T10:30:57;7.15;;;6.22;;
39612;SDS011;25303;48.896;13.342;2022-08-21T10:33:46;7.43;;;6.72;;
39612;SDS011;25303;48.896;13.342;2022-08-21T10:36:41;6.95;;;6.05;;
39612;SDS011;25303;48.896;13.342;2022-08-21T10:39:31;5.00;;;4.50;;
39612;SDS011;25303;48.896;13.342;2022-08-21T10:42:31;4.60;;;4.03;;
39612;SDS011;25303;48.896;13.342;2022-08-21T10:45:24;5.50;;;4.20;;
39612;SDS011;25303;48.896;13.342;2022-08-21T10:48:21;4.88;;;3.95;;
39612;SDS011;25303;48.896;13.342;2022-08-21T10:51:10;4.80;;;3.60;;
39612;SDS011;25303;48.896;13.342;2022-08-21T10:53:59;3.97;;;3.20;;
39612;SDS011;25303;48.896;13.342;2022-08-21T10:56:55;3.42;;;2.72;;
39612;SDS011;25303;48.896;13.342;2022-08-21T10:59:47;3.50;;;3.20;;
39612;SDS011;25303;48.896;13.342;2022-08-21T11:02:38;4.47;;;3.85;;
39612;SDS011;25303;48.896;13.342;2022-08-21T11:05:25;3.38;;;2.92;;
39612;SDS011;25303;48.896;13.342;2022-08-21T11:08:14;3.75;;;3.17;;
39612;SDS011;25303;48.896;13.342;2022-08-21T11:11:01;3.85;;;3.45;;
39612;SDS011;25303;48.896;13.342;2022-08-21T11:13:50;3.70;;;3.20;;
39612;SDS011;25303;48.896;13.342;2022-08-21T11:16:39;3.10;;;2.80;;
39612;SDS011;25303;48.896;13.342;2022-08-21T11:19:28;3.15;;;2.63;;
39612;SDS011;25303;48.896;13.342;2022-08-21T11:22:17;6.10;;;4.43;;
39612;SDS011;25303;48.896;13.342;2022-08-21T11:25:06;5.97;;;5.38;;
39612;SDS011;25303;48.896;13.342;2022-08-21T11:27:54;5.13;;;4.40;;
39612;SDS011;25303;48.896;13.342;2022-08-21T11:30:45;5.65;;;5.05;;
39612;SDS011;25303;48.896;13.342;2022-08-21T11:33:39;4.80;;;4.30;;
39612;SDS011;25303;48.896;13.342;2022-08-21T11:36:36;5.78;;;4.03;;
39612;SDS011;25303;48.896;13.342;2022-08-21T11:39:30;7.07;;;4.90;;
39612;SDS011;25303;48.896;13.342;2022-08-21T11:45:15;5.05;;;3.83;;
39612;SDS011;25303;48.896;13.342;2022-08-21T11:48:11;4.00;;;3.58;;
39612;SDS011;25303;48.896;13.342;2022-08-21T11:51:06;5.28;;;3.72;;
39612;SDS011;25303;48.896;13.342;2022-08-21T11:53:56;3.72;;;3.33;;
39612;SDS011;25303;48.896;13.342;2022-08-21T11:56:48;5.07;;;4.22;;
39612;SDS011;25303;48.896;13.342;2022-08-21T11:59:37;5.65;;;4.25;;
39612;SDS011;25303;48.896;13.342;2022-08-21T12:02:28;4.47;;;3.72;;
39612;SDS011;25303;48.896;13.342;2022-08-21T12:05:22;4.80;;;4.28;;
39612;SDS011;25303;48.896;13.342;2022-08-21T12:08:11;5.43;;;4.50;;
39612;SDS011;25303;48.896;13.342;2022-08-21T12:11:04;5.53;;;4.63;;
39612;SDS011;25303;48.896;13.342;2022-08-21T12:13:52;4.30;;;3.78;;
39612;SDS011;25303;48.896;13.342;2022-08-21T12:16:39;4.38;;;3.90;;
39612;SDS011;25303;48.896;13.342;2022-08-21T12:19:32;4.03;;;3.47;;
39612;SDS011;25303;48.896;13.342;2022-08-21T12:22:16;5.40;;;4.07;;
39612;SDS011;25303;48.896;13.342;2022-08-21T12:25:03;4.03;;;3.63;;
39612;SDS011;25303;48.896;13.342;2022-08-21T12:27:50;3.60;;;3.10;;
39612;SDS011;25303;48.896;13.342;2022-08-21T12:30:35;3.78;;;3.03;;
39612;SDS011;25303;48.896;13.342;2022-08-21T12:33:22;3.50;;;3.10;;
39612;SDS011;25303;48.896;13.342;2022-08-21T12:36:11;3.20;;;2.90;;
39612;SDS011;25303;48.896;13.342;2022-08-21T12:38:59;4.55;;;2.90;;
39612;SDS011;25303;48.896;13.342;2022-08-21T12:41:48;4.32;;;3.92;;
39612;SDS011;25303;48.896;13.342;2022-08-21T12:44:44;3.22;;;2.92;;
39612;SDS011;25303;48.896;13.342;2022-08-21T12:47:33;3.80;;;2.95;;
39612;SDS011;25303;48.896;13.342;2022-08-21T12:50:26;4.70;;;3.70;;
39612;SDS011;25303;48.896;13.342;2022-08-21T12:53:21;3.25;;;2.95;;
39612;SDS011;25303;48.896;13.342;2022-08-21T12:56:10;3.60;;;3.10;;
39612;SDS011;25303;48.896;13.342;2022-08-21T12:58:57;4.53;;;3.45;;
39612;SDS011;25303;48.896;13.342;2022-08-21T13:01:47;3.30;;;2.95;;
39612;SDS011;25303;48.896;13.342;2022-08-21T13:04:33;3.88;;;3.38;;
39612;SDS011;25303;48.896;13.342;2022-08-21T13:07:22;3.97;;;3.30;;
39612;SDS011;25303;48.896;13.342;2022-08-21T13:10:14;3.75;;;3.20;;
39612;SDS011;25303;48.896;13.342;2022-08-21T13:13:02;3.80;;;3.20;;
39612;SDS011;25303;48.896;13.342;2022-08-21T13:15:56;3.30;;;2.88;;
39612;SDS011;25303;48.896;13.342;2022-08-21T13:18:52;4.20;;;3.70;;
39612;SDS011;25303;48.896;13.342;2022-08-21T13:21:39;4.10;;;3.63;;
39612;SDS011;25303;48.896;13.342;2022-08-21T13:24:25;6.00;;;4.30;;
39612;SDS011;25303;48.896;13.342;2022-08-21T13:27:24;3.95;;;3.55;;
39612;SDS011;25303;48.896;13.342;2022-08-21T13:30:11;5.00;;;4.22;;
39612;SDS011;25303;48.896;13.342;2022-08-21T13:32:57;4.32;;;3.70;;
39612;SDS011;25303;48.896;13.342;2022-08-21T13:35:48;4.43;;;3.80;;
39612;SDS011;25303;48.896;13.342;2022-08-21T13:38:34;3.97;;;3.58;;
39612;SDS011;25303;48.896;13.342;2022-08-21T13:41:20;4.70;;;3.88;;
39612;SDS011;25303;48.896;13.342;2022-08-21T13:44:13;3.60;;;3.30;;
39612;SDS011;25303;48.896;13.342;2022-08-21T13:47:02;3.92;;;3.53;;
39612;SDS011;25303;48.896;13.342;2022-08-21T13:49:47;3.63;;;3.30;;
39612;SDS011;25303;48.896;13.342;2022-08-21T13:52:46;4.55;;;3.72;;
39612;SDS011;25303;48.896;13.342;2022-08-21T13:55:37;5.38;;;4.55;;
39612;SDS011;25303;48.896;13.342;2022-08-21T13:58:24;4.40;;;3.90;;
39612;SDS011;25303;48.896;13.342;2022-08-21T14:01:16;5.22;;;4.35;;
39612;SDS011;25303;48.896;13.342;2022-08-21T14:04:03;3.75;;;3.25;;
39612;SDS011;25303;48.896;13.342;2022-08-21T14:06:50;4.43;;;3.35;;
39612;SDS011;25303;48.896;13.342;2022-08-21T14:09:39;2.97;;;2.63;;
39612;SDS011;25303;48.896;13.342;2022-08-21T14:12:25;2.90;;;2.50;;
39612;SDS011;25303;48.896;13.342;2022-08-21T14:15:12;2.95;;;2.60;;
39612;SDS011;25303;48.896;13.342;2022-08-21T14:18:05;2.80;;;2.50;;
39612;SDS011;25303;48.896;13.342;2022-08-21T14:20:51;2.55;;;2.35;;
39612;SDS011;25303;48.896;13.342;2022-08-21T14:23:45;2.95;;;2.45;;
39612;SDS011;25303;48.896;13.342;2022-08-21T14:26:29;2.78;;;2.42;;
39612;SDS011;25303;48.896;13.342;2022-08-21T14:29:13;2.60;;;2.10;;
39612;SDS011;25303;48.896;13.342;2022-08-21T14:31:58;3.00;;;2.47;;
39612;SDS011;25303;48.896;13.342;2022-08-21T14:35:05;2.85;;;2.60;;
39612;SDS011;25303;48.896;13.342;2022-08-21T14:37:49;3.88;;;2.50;;
39612;SDS011;25303;48.896;13.342;2022-08-21T14:40:33;3.22;;;2.72;;
39612;SDS011;25303;48.896;13.342;2022-08-21T14:43:17;2.72;;;2.42;;
39612;SDS011;25303;48.896;13.342;2022-08-21T14:46:01;3.05;;;2.47;;
39612;SDS011;25303;48.896;13.342;2022-08-21T14:48:44;3.60;;;2.90;;
39612;SDS011;25303;48.896;13.342;2022-08-21T14:51:28;3.42;;;2.70;;
39612;SDS011;25303;48.896;13.342;2022-08-21T14:54:11;3.08;;;2.50;;
39612;SDS011;25303;48.896;13.342;2022-08-21T14:56:54;2.80;;;2.50;;
39612;SDS011;25303;48.896;13.342;2022-08-21T14:59:38;3.00;;;2.28;;
39612;SDS011;25303;48.896;13.342;2022-08-21T15:02:22;3.03;;;2.67;;
39612;SDS011;25303;48.896;13.342;2022-08-21T15:05:05;3.17;;;2.47;;
39612;SDS011;25303;48.896;13.342;2022-08-21T15:07:49;2.40;;;2.20;;
39612;SDS011;25303;48.896;13.342;2022-08-21T15:10:32;3.28;;;2.92;;
39612;SDS011;25303;48.896;13.342;2022-08-21T15:13:37;2.72;;;2.42;;
39612;SDS011;25303;48.896;13.342;2022-08-21T15:16:22;3.30;;;2.42;;
39612;SDS011;25303;48.896;13.342;2022-08-21T15:19:06;3.13;;;2.60;;
39612;SDS011;25303;48.896;13.342;2022-08-21T15:21:49;3.65;;;2.67;;
39612;SDS011;25303;48.896;13.342;2022-08-21T15:24:32;3.78;;;2.67;;
39612;SDS011;25303;48.896;13.342;2022-08-21T15:27:15;3.42;;;2.63;;
39612;SDS011;25303;48.896;13.342;2022-08-21T15:30:01;3.78;;;2.70;;
39612;SDS011;25303;48.896;13.342;2022-08-21T15:32:46;3.60;;;2.90;;
39612;SDS011;25303;48.896;13.342;2022-08-21T15:35:29;3.42;;;2.97;;
39612;SDS011;25303;48.896;13.342;2022-08-21T15:38:13;4.00;;;2.85;;
39612;SDS011;25303;48.896;13.342;2022-08-21T15:40:56;3.93;;;2.87;;
39612;SDS011;25303;48.896;13.342;2022-08-21T15:43:41;3.67;;;2.50;;
39612;SDS011;25303;48.896;13.342;2022-08-21T15:46:26;5.05;;;3.50;;
39612;SDS011;25303;48.896;13.342;2022-08-21T15:49:11;3.08;;;2.78;;
39612;SDS011;25303;48.896;13.342;2022-08-21T15:51:54;3.42;;;3.10;;
39612;SDS011;25303;48.896;13.342;2022-08-21T15:54:37;4.63;;;3.42;;
39612;SDS011;25303;48.896;13.342;2022-08-21T15:57:21;4.03;;;3.00;;
39612;SDS011;25303;48.896;13.342;2022-08-21T16:00:07;3.70;;;3.30;;
39612;SDS011;25303;48.896;13.342;2022-08-21T16:02:57;3.60;;;3.17;;
39612;SDS011;25303;48.896;13.342;2022-08-21T16:05:43;3.63;;;3.10;;
39612;SDS011;25303;48.896;13.342;2022-08-21T16:08:26;3.95;;;3.13;;
39612;SDS011;25303;48.896;13.342;2022-08-21T16:11:09;3.95;;;2.95;;
39612;SDS011;25303;48.896;13.342;2022-08-21T16:13:53;3.47;;;2.92;;
39612;SDS011;25303;48.896;13.342;2022-08-21T16:16:37;4.15;;;3.15;;
39612;SDS011;25303;48.896;13.342;2022-08-21T16:19:21;3.53;;;2.92;;
39612;SDS011;25303;48.896;13.342;2022-08-21T16:22:05;3.30;;;2.85;;
39612;SDS011;25303;48.896;13.342;2022-08-21T16:24:48;3.40;;;3.08;;
39612;SDS011;25303;48.896;13.342;2022-08-21T16:27:32;3.90;;;3.28;;
39612;SDS011;25303;48.896;13.342;2022-08-21T16:30:19;3.08;;;2.78;;
39612;SDS011;25303;48.896;13.342;2022-08-21T16:33:03;3.38;;;2.67;;
39612;SDS011;25303;48.896;13.342;2022-08-21T16:35:49;6.10;;;3.15;;